P20 weather

Avi Suquilla Airport
Parker, Arizona, United States

Public forecast

Using degrees Fahrenheit for public forecast. Weather courtesy of forecast.io.

Closest aviation weather report (METAR) to Avi Suquilla Airport

Closest report is Lake Havasu City Airport, 25.6 nm (47.4 km) N. Retrieved 2020/07/10 03:15 UTC (13 minutes ago):

KHII 100315Z AUTO 21004KT 10SM CLR 39/02 A2973 RMK AO2

Closest aviation forecast (TAF) to Avi Suquilla Airport

Closest forecast is Blythe Airport, 38.9 nm (72.0 km) SW. Retrieved 2020-07-10 00:22 UTC (3 hours ago):

TAF KBLH 092320Z 1000/1024 18014KT P6SM SKC FM100300 24009KT P6SM FEW200 FM100900 15005KT P6SM FEW200 FM101800 18013KT P6SM SCT200